Time;durP1;ratioP1;P1;durP2;ratioP2;P2;SDS_P1;SDS_P2;PMS_P1;PMS_P2;Temp;Humidity;BMP_temperature;BMP_pressure;BME280_temperature;BME280_humidity;BME280_pressure;Samples;Min_cycle;Max_cycle;Signal;HPM_P1;HPM_P2
2023/09/02 00:01:47;;;;;;;32.45;17.08;;;16.30;99.90;;;-144.05;95.86;56980.53;5034197;28;20373;-80
2023/09/02 00:04:13;;;;;;;32.83;18.52;;;;;;;-144.05;95.63;56986.91;5032272;28;20053;-82
2023/09/02 00:06:39;;;;;;;31.58;15.25;;;12.50;99.90;;;-144.05;95.59;56972.03;5049187;28;20057;-81
2023/09/02 00:09:05;;;;;;;24.70;14.93;;;16.10;99.90;;;-144.05;95.55;56982.66;5033567;28;20171;-81
2023/09/02 00:11:31;;;;;;;27.55;16.45;;;;;;;-144.05;95.31;56993.25;5049014;28;20025;-82
2023/09/02 00:13:57;;;;;;;23.80;15.05;;;16.40;99.90;;;-144.05;95.39;56999.63;5048896;28;20033;-81
2023/09/02 00:16:23;;;;;;;25.38;14.68;;;15.90;99.90;;;-144.05;95.24;56978.41;5033657;28;20108;-80
2023/09/02 00:18:49;;;;;;;22.35;12.88;;;;;;;-144.05;95.43;56986.91;5049817;28;20013;-84
2023/09/02 00:21:15;;;;;;;24.25;13.60;;;16.30;99.90;;;-144.05;95.31;57001.75;5038757;28;20025;-84
2023/09/02 00:23:45;;;;;;;20.75;13.00;;;12.80;99.90;;;-144.05;95.46;56995.38;5035207;28;20713;-85
2023/09/02 00:26:12;;;;;;;20.05;11.18;;;;;;;-144.05;95.51;56976.28;5033970;28;20033;-84
2023/09/02 00:28:38;;;;;;;21.45;12.73;;;15.60;99.90;;;-144.05;95.38;56995.38;5034083;28;20079;-83
2023/09/02 00:31:04;;;;;;;27.05;15.30;;;12.20;99.90;;;-144.05;95.50;56999.63;5033576;28;20033;-84
2023/09/02 00:33:30;;;;;;;35.13;18.42;;;12.40;99.90;;;-144.05;95.53;56972.03;5034596;28;20021;-82
2023/09/02 00:35:56;;;;;;;34.45;17.90;;;;;;;-144.05;95.50;56957.16;5033566;28;20060;-83
2023/09/02 00:38:22;;;;;;;30.90;17.92;;;;;;;-144.05;95.68;56980.53;5034321;28;20033;-82
2023/09/02 00:41:06;;;;;;;29.95;16.17;;;16.10;99.90;;;-144.05;95.53;56965.66;5035917;28;20068;-85
2023/09/02 00:43:32;;;;;;;23.27;13.55;;;16.00;99.90;;;-144.05;95.41;56980.53;5037345;28;20045;-85
2023/09/02 00:45:58;;;;;;;29.88;16.92;;;;;;;-144.05;95.28;56965.66;5035804;28;20045;-84
2023/09/02 00:48:24;;;;;;;24.80;15.15;;;16.50;99.90;;;-144.05;95.18;56963.53;5034921;28;20025;-82
2023/09/02 00:50:50;;;;;;;37.05;19.50;;;12.80;99.90;;;-144.05;95.08;56991.13;5034113;28;20448;-83
2023/09/02 00:53:18;;;;;;;38.17;18.65;;;16.10;99.90;;;-144.05;95.40;57001.75;5048915;28;20025;-83
2023/09/02 00:55:46;;;;;;;37.88;19.40;;;16.50;99.90;;;-144.05;95.37;56986.91;5032232;28;20029;-85
2023/09/02 00:58:13;;;;;;;34.72;18.17;;;16.20;99.90;;;-144.05;95.39;56978.41;5048410;28;20095;-83
2023/09/02 01:00:40;;;;;;;33.40;18.27;;;;;;;-144.05;95.52;56989.00;5031783;28;20022;-82
2023/09/02 01:03:06;;;;;;;39.20;21.23;;;12.90;99.90;;;-144.05;95.34;57010.25;5033318;28;20064;-84
2023/09/02 01:05:34;;;;;;;28.50;15.27;;;12.70;99.90;;;-144.05;95.43;57001.75;5048455;28;20524;-84
2023/09/02 01:08:03;;;;;;;27.30;15.70;;;12.70;99.90;;;-144.05;95.29;56955.03;5033447;28;20029;-83
2023/09/02 01:10:36;;;;;;;30.90;17.73;;;15.20;99.90;;;-144.05;95.12;56995.38;5048108;28;20034;-83
2023/09/02 01:13:03;;;;;;;36.47;19.27;;;16.60;99.90;;;-144.05;95.41;56980.53;5048111;28;20546;-84
2023/09/02 01:15:32;;;;;;;32.47;17.75;;;16.60;99.90;;;-144.05;95.18;56961.41;5032787;28;20025;-84
2023/09/02 01:17:58;;;;;;;26.50;15.85;;;16.50;99.90;;;-144.05;95.18;56982.66;5047920;28;20125;-82
2023/09/02 01:21:19;;;;;;;30.90;15.18;;;16.70;99.90;;;-144.05;95.16;56984.78;5032651;28;20058;-81
2023/09/02 01:24:30;;;;;;;24.42;14.68;;;16.50;99.90;;;-144.05;95.28;56976.28;5022360;28;20037;-82
2023/09/02 01:27:34;;;;;;;29.70;15.40;;;16.70;99.90;;;-144.05;95.21;56976.28;5033996;28;20030;-82
2023/09/02 01:30:19;;;;;;;26.52;15.38;;;16.70;99.90;;;-144.05;95.14;56991.13;5026303;28;20033;-82
2023/09/02 01:32:53;;;;;;;36.17;21.07;;;13.10;99.90;;;-144.05;95.27;56976.28;5048843;28;20451;-83
2023/09/02 01:35:27;;;;;;;38.33;20.33;;;13.00;99.90;;;-144.05;95.77;56976.28;5031614;28;20283;-83
2023/09/02 01:37:58;;;;;;;32.45;18.15;;;16.60;99.90;;;-144.05;95.42;56989.00;5047850;28;20049;-84
2023/09/02 01:40:28;;;;;;;33.72;20.42;;;13.20;99.90;;;-144.05;95.30;56982.66;5033018;28;20051;-82
2023/09/02 01:42:59;;;;;;;26.02;15.77;;;16.70;99.90;;;-144.05;95.17;56982.66;5031720;28;20454;-82
2023/09/02 01:45:30;;;;;;;26.00;16.00;;;16.90;99.90;;;-144.05;95.05;56997.50;5032943;28;20025;-85
2023/09/02 01:47:58;;;;;;;32.72;18.92;;;15.30;99.90;;;-144.05;95.08;56999.63;5032747;28;20033;-84
2023/09/02 01:50:30;;;;;;;28.55;16.02;;;16.40;99.90;;;-144.05;94.97;56989.00;5033966;28;20465;-81
2023/09/02 01:52:59;;;;;;;37.88;19.42;;;13.20;99.90;;;-144.05;94.80;56980.53;5033271;28;20116;-83
2023/09/02 01:55:26;;;;;;;30.02;15.98;;;;;;;-144.05;95.12;56980.53;5033262;28;20037;-83
2023/09/02 01:57:56;;;;;;;32.72;16.85;;;15.20;99.90;;;-144.05;95.13;56991.13;5034303;28;20453;-84
2023/09/02 02:00:21;;;;;;;32.10;17.67;;;16.50;99.90;;;-144.05;95.07;56995.38;5048885;28;20026;-84
2023/09/02 02:02:54;;;;;;;28.38;16.38;;;12.80;99.90;;;-144.05;94.82;56982.66;5032446;28;20389;-84
2023/09/02 02:05:35;;;;;;;25.90;15.38;;;16.60;99.90;;;-144.05;94.74;56989.00;5034532;28;20356;-84
2023/09/02 02:08:16;;;;;;;35.45;17.00;;;16.70;99.90;;;-144.05;95.01;56972.03;5034030;28;20108;-82
2023/09/02 02:10:45;;;;;;;36.00;17.08;;;15.30;99.90;;;-144.05;94.94;56984.78;5032826;28;20030;-83
2023/09/02 02:13:12;;;;;;;33.38;17.27;;;16.70;99.90;;;-144.05;95.03;56982.66;5051555;28;20033;-82
2023/09/02 02:15:38;;;;;;;24.80;14.48;;;;;;;-144.05;94.75;56984.78;5034933;28;20029;-84
2023/09/02 02:18:05;;;;;;;29.70;16.20;;;;;;;-144.05;94.61;56955.03;5036134;28;20034;-85
2023/09/02 02:21:07;;;;;;;30.90;16.65;;;15.30;99.90;;;-144.05;94.79;56993.25;5036380;28;20036;-84
2023/09/02 02:23:33;;;;;;;30.35;15.40;;;;;;;-144.05;94.72;56984.78;5035833;28;20042;-83
2023/09/02 02:26:05;;;;;;;26.55;16.17;;;16.10;99.90;;;-144.05;94.56;56959.28;5036063;28;20405;-81
2023/09/02 02:28:31;;;;;;;27.48;15.05;;;16.20;99.90;;;-144.05;94.70;56978.41;5034960;28;20107;-83
2023/09/02 02:30:59;;;;;;;26.30;14.82;;;15.10;99.90;;;-144.05;94.49;57012.38;5035780;28;20405;-82
2023/09/02 02:33:25;;;;;;;31.25;17.10;;;;;;;-144.05;95.44;57016.63;5035842;28;20468;-83
2023/09/02 02:35:52;;;;;;;37.92;18.13;;;;;;;-144.05;94.96;56993.25;5034407;28;20524;-82
2023/09/02 02:38:18;;;;;;;32.85;17.00;;;;;;;-144.05;95.12;56969.91;5035442;28;20159;-81
2023/09/02 02:40:44;;;;;;;30.25;16.20;;;;;;;-144.05;95.48;56991.13;5035870;28;20536;-85
2023/09/02 02:43:11;;;;;;;30.58;14.77;;;;;;;-144.05;95.77;56993.25;5035260;28;20473;-85
2023/09/02 02:45:37;;;;;;;27.27;15.25;;;;;;;-144.05;96.14;56974.16;5037354;28;20033;-84
2023/09/02 02:48:03;;;;;;;27.10;13.35;;;;;;;-144.05;96.13;56952.91;5037131;28;20030;-86
2023/09/02 02:50:29;;;;;;;30.33;15.95;;;16.60;99.90;;;-144.05;95.17;57001.75;5037171;28;20030;-82
2023/09/02 02:52:56;;;;;;;31.10;15.18;;;;;;;-144.05;95.10;56933.78;5052452;28;20544;-84
2023/09/02 02:55:22;;;;;;;26.60;13.73;;;;;;;-144.05;94.87;56980.53;5036801;28;20029;-84
2023/09/02 02:57:48;;;;;;;26.83;13.82;;;;;;;-144.05;95.52;57008.13;5035988;28;20060;-81
2023/09/02 03:00:15;;;;;;;21.73;12.50;;;;;;;-144.05;95.69;56978.41;5037375;28;20117;-83
2023/09/02 03:02:41;;;;;;;28.98;14.77;;;;;;;-144.05;95.84;56986.91;5052495;28;20037;-84
2023/09/02 03:05:09;;;;;;;21.02;12.77;;;;;;;-144.05;95.88;56991.13;5036819;28;20091;-85
2023/09/02 03:07:38;;;;;;;28.88;15.20;;;;;;;-144.05;95.98;56991.13;5037161;28;20036;-82
2023/09/02 03:10:05;;;;;;;27.58;15.40;;;12.10;99.90;;;-144.05;97.35;56984.78;5037107;28;20040;-83
2023/09/02 03:12:31;;;;;;;23.65;13.95;;;16.40;99.90;;;-144.05;97.46;56974.16;5055625;28;20393;-85
2023/09/02 03:14:57;;;;;;;20.83;11.77;;;11.60;99.90;;;-144.05;97.29;56986.91;5041171;28;20036;-81
2023/09/02 03:17:23;;;;;;;24.27;14.10;;;;;;;-144.05;97.13;56986.91;5040993;28;20025;-83
2023/09/02 03:19:49;;;;;;;25.50;13.63;;;16.40;99.90;;;-144.05;97.00;57008.13;5041464;28;20088;-83
2023/09/02 03:22:15;;;;;;;18.90;12.00;;;;;;;-144.05;96.88;56982.66;5058018;28;20155;-82
2023/09/02 03:24:41;;;;;;;20.48;11.13;;;16.70;99.90;;;-144.05;95.17;56980.53;5050440;28;20033;-83
2023/09/02 03:27:07;;;;;;;18.35;10.13;;;;;;;-144.05;95.08;56989.00;5038713;28;20033;-82
2023/09/02 03:29:34;;;;;;;17.35;9.95;;;;;;;-144.05;95.68;56972.03;5038710;28;20034;-84
2023/09/02 03:32:00;;;;;;;23.40;14.07;;;16.60;99.90;;;-144.05;95.32;56974.16;5036926;28;20089;-84
2023/09/02 03:34:26;;;;;;;19.67;10.13;;;;;;;-144.05;94.66;56984.78;5054085;28;20025;-84
2023/09/02 03:36:53;;;;;;;23.90;12.50;;;;;;;-144.05;94.74;56980.53;5036717;28;20030;-81
2023/09/02 03:39:19;;;;;;;24.25;13.88;;;;;;;-144.05;94.69;57010.25;5037036;28;20026;-84
2023/09/02 03:41:48;;;;;;;21.98;11.95;;;16.60;99.90;;;-144.05;94.71;56976.28;5036839;28;20064;-85
2023/09/02 03:44:14;;;;;;;28.38;14.18;;;11.10;99.90;;;-144.05;94.89;56995.38;5036632;28;20037;-85
2023/09/02 03:46:40;;;;;;;17.30;10.30;;;;;;;-144.05;95.13;56991.13;5035272;28;20040;-83
2023/09/02 03:49:06;;;;;;;13.60;7.90;;;;;;;-144.05;95.48;56978.41;5035913;28;20072;-85
2023/09/02 03:51:32;;;;;;;25.65;11.15;;;;;;;-144.05;95.68;57001.75;5036032;28;20584;-84
2023/09/02 03:53:58;;;;;;;19.10;10.32;;;;;;;-144.05;95.86;57018.75;5036548;28;20492;-83
2023/09/02 03:56:25;;;;;;;20.27;10.77;;;;;;;-144.05;95.93;57010.25;5035744;28;20033;-83
2023/09/02 03:58:53;;;;;;;18.27;10.07;;;;;;;-144.05;95.78;56989.00;5036074;28;20041;-83
2023/09/02 04:01:19;;;;;;;21.42;13.10;;;;;;;-144.05;95.98;57006.00;5035913;28;20025;-82
2023/09/02 04:03:45;;;;;;;16.27;10.25;;;;;;;-144.05;95.99;56972.03;5036206;28;20036;-84
2023/09/02 04:06:11;;;;;;;21.30;11.15;;;;;;;-144.05;95.99;56991.13;5036535;28;20033;-82
2023/09/02 04:08:37;;;;;;;16.60;10.10;;;;;;;-144.05;95.90;56948.66;5036520;28;20025;-83
2023/09/02 04:11:04;;;;;;;24.02;13.23;;;;;;;-144.05;94.69;56999.63;5036452;28;20041;-84
2023/09/02 04:13:31;;;;;;;22.75;12.98;;;;;;;-144.05;94.11;57006.00;5035537;28;20054;-82
2023/09/02 04:16:03;;;;;;;21.60;11.45;;;15.30;99.90;;;-144.05;94.04;56984.78;5043556;28;20085;-81
2023/09/02 04:18:32;;;;;;;17.23;10.52;;;;;;;-144.05;94.16;56995.38;5070745;28;20032;-81
2023/09/02 04:21:03;;;;;;;20.20;9.20;;;15.90;99.90;;;-144.05;95.35;56980.53;5052603;28;20088;-81
2023/09/02 04:23:31;;;;;;;17.75;10.27;;;;;;;-144.05;95.13;56991.13;5069140;28;20091;-80
2023/09/02 04:25:58;;;;;;;19.85;13.43;;;15.20;99.90;;;-144.05;95.27;56967.78;5048585;28;20071;-82
2023/09/02 04:28:25;;;;;;;16.90;9.95;;;;;;;-144.05;94.62;56959.28;5045599;28;20026;-85
2023/09/02 04:30:59;;;;;;;20.33;11.13;;;15.00;99.90;;;-144.05;95.07;56989.00;5021181;28;20022;-81
2023/09/02 04:33:28;;;;;;;16.90;9.63;;;11.80;99.90;;;-144.05;95.34;56989.00;5015689;28;20033;-83
2023/09/02 04:35:54;;;;;;;19.17;10.07;;;;;;;-144.05;94.78;56984.78;5014709;28;20501;-85
2023/09/02 04:38:20;;;;;;;25.65;13.50;;;;;;;-144.05;94.94;56972.03;5015781;28;20042;-84
2023/09/02 04:40:47;;;;;;;17.20;10.57;;;;;;;-144.05;95.00;56986.91;5015306;28;20060;-84
2023/09/02 04:43:14;;;;;;;24.20;11.43;;;15.20;99.90;;;-144.05;95.46;57006.00;5014629;28;20114;-82
2023/09/02 04:45:42;;;;;;;22.33;11.95;;;15.30;99.90;;;-144.05;94.79;56993.25;5015848;28;20030;-82
2023/09/02 04:48:09;;;;;;;21.45;11.57;;;15.60;99.90;;;-144.05;94.71;56974.16;5014782;28;20485;-84
2023/09/02 04:50:38;;;;;;;22.52;11.98;;;15.10;99.90;;;-144.05;96.62;56986.91;5030066;28;20030;-83
2023/09/02 04:53:05;;;;;;;17.70;10.55;;;;;;;-144.05;97.04;56978.41;5030175;28;20401;-81
2023/09/02 04:55:31;;;;;;;18.55;9.63;;;;;;;-144.05;98.14;56978.41;5030325;28;20032;-83
2023/09/02 04:57:58;;;;;;;28.25;14.15;;;16.20;99.90;;;-144.05;98.79;56989.00;5015695;28;20026;-84
2023/09/02 05:00:28;;;;;;;25.60;12.77;;;15.30;99.90;;;-144.05;97.92;56999.63;5031290;28;20117;-82
2023/09/02 05:02:55;;;;;;;24.42;12.68;;;12.80;99.90;;;-144.05;97.91;56984.78;5031540;28;20026;-84
2023/09/02 05:05:23;;;;;;;25.52;13.43;;;12.80;99.90;;;-144.05;97.81;56986.91;5016019;28;20160;-83
2023/09/02 05:07:50;;;;;;;23.00;13.00;;;12.10;99.90;;;-144.05;97.79;56972.03;5016041;28;20032;-83
2023/09/02 05:10:16;;;;;;;24.42;14.05;;;12.40;99.90;;;-144.05;97.78;56993.25;5030668;28;20351;-82
2023/09/02 05:12:43;;;;;;;23.25;12.02;;;;;;;-144.05;97.62;56991.13;5032391;28;20124;-84
2023/09/02 05:15:10;;;;;;;20.65;11.80;;;;;;;-144.05;97.79;56980.53;5031955;28;20037;-83
2023/09/02 05:17:36;;;;;;;25.77;12.70;;;;;;;-144.05;97.94;56986.91;5031529;28;20080;-83
2023/09/02 05:20:04;;;;;;;24.95;12.30;;;16.50;99.90;;;-144.05;97.95;56986.91;5015844;28;20490;-82
2023/09/02 05:22:31;;;;;;;18.75;10.60;;;12.10;99.90;;;-144.05;97.66;56982.66;5030722;28;20481;-82
2023/09/02 05:24:58;;;;;;;18.33;11.07;;;;;;;-144.05;97.47;56989.00;5030130;28;20076;-84
2023/09/02 05:27:24;;;;;;;18.00;10.15;;;17.00;99.90;;;-144.05;97.34;56982.66;5014625;28;20025;-85
2023/09/02 05:29:50;;;;;;;19.13;10.77;;;11.40;99.90;;;-144.05;97.36;57006.00;5042684;28;20029;-82
2023/09/02 05:32:17;;;;;;;20.63;10.40;;;;;;;-144.05;97.45;56978.41;5036546;28;20096;-83
2023/09/02 05:34:44;;;;;;;18.40;10.88;;;16.90;99.90;;;-144.05;97.81;56989.00;5033900;28;20460;-81
2023/09/02 05:37:10;;;;;;;18.02;10.15;;;12.60;99.90;;;-144.05;95.45;57001.75;5034452;28;20036;-85
2023/09/02 05:39:36;;;;;;;19.25;10.70;;;17.00;99.90;;;-144.05;94.72;56991.13;5035379;28;20404;-83
2023/09/02 05:42:02;;;;;;;17.83;9.80;;;16.90;99.90;;;-144.05;94.39;56999.63;5036596;28;20052;-85
2023/09/02 05:44:29;;;;;;;20.13;11.10;;;15.70;99.90;;;-144.05;94.30;56997.50;5036190;28;20033;-84
2023/09/02 05:46:55;;;;;;;16.63;9.98;;;;;;;-144.05;94.25;57003.88;5035597;28;20135;-82
2023/09/02 05:49:21;;;;;;;14.02;8.50;;;;;;;-144.05;94.09;56997.50;5050952;28;20405;-82
2023/09/02 05:51:47;;;;;;;14.32;8.70;;;;;;;-144.05;94.67;56980.53;5034959;28;20030;-82
2023/09/02 05:54:14;;;;;;;14.35;9.13;;;;;;;-144.05;94.34;56955.03;5034825;28;20029;-83
2023/09/02 05:56:40;;;;;;;11.85;7.03;;;;;;;-144.05;94.96;56993.25;5052159;28;20030;-84
2023/09/02 05:59:06;;;;;;;12.75;7.55;;;;;;;-144.05;96.70;56982.66;5036720;28;20101;-84
2023/09/02 06:01:33;;;;;;;22.30;11.60;;;;;;;-144.05;95.54;56982.66;5034922;28;20037;-82
2023/09/02 06:04:02;;;;;;;13.27;9.10;;;13.30;99.90;;;-144.05;94.02;57006.00;5035835;28;20078;-84
2023/09/02 06:06:28;;;;;;;15.63;10.82;;;13.10;99.90;;;-144.05;93.47;56991.13;5052229;28;20479;-82
2023/09/02 06:08:54;;;;;;;14.48;9.80;;;17.30;99.90;;;-144.05;92.95;56993.25;5052021;28;20029;-83
2023/09/02 06:11:20;;;;;;;14.77;9.45;;;;;;;-144.05;92.61;56997.50;5037387;28;20033;-83
2023/09/02 06:13:46;;;;;;;15.70;8.13;;;;;;;-144.05;93.28;57010.25;5036108;28;20544;-82
2023/09/02 06:16:12;;;;;;;14.13;8.82;;;;;;;-144.05;93.19;56991.13;5035735;28;20089;-81
2023/09/02 06:18:39;;;;;;;15.02;9.43;;;;;;;-144.05;92.93;56991.13;5033964;28;20121;-85
2023/09/02 06:21:13;;;;;;;13.63;8.38;;;16.30;99.90;;;-144.05;93.19;56986.91;5032873;28;20040;-85
2023/09/02 06:23:44;;;;;;;15.48;8.05;;;17.70;99.90;;;-144.05;93.00;56997.50;5033525;28;20049;-82
2023/09/02 06:26:12;;;;;;;13.25;8.27;;;16.60;99.90;;;-144.05;92.83;56959.28;5049066;28;20088;-83
2023/09/02 06:28:39;;;;;;;8.98;6.95;;;18.00;99.90;;;-144.05;91.71;57001.75;5050619;28;20496;-85
2023/09/02 06:31:09;;;;;;;12.02;7.53;;;16.70;99.90;;;-144.05;91.03;56972.03;5037866;28;20040;-83
2023/09/02 06:33:35;;;;;;;10.98;6.60;;;;;;;-144.05;91.37;56989.00;5051492;28;20030;-84
2023/09/02 06:36:14;;;;;;;12.23;8.13;;;;;;;-144.05;91.13;57003.88;5036221;28;20033;-85
2023/09/02 06:38:40;;;;;;;10.73;6.72;;;;;;;-144.05;91.43;56982.66;5035164;28;20120;-84
2023/09/02 06:41:11;;;;;;;9.88;6.05;;;17.00;99.90;;;-144.05;90.76;56991.13;5050227;28;20140;-83
2023/09/02 06:43:39;;;;;;;8.15;6.00;;;;;;;-144.05;90.35;57020.88;5036164;28;20030;-84
2023/09/02 06:46:23;;;;;;;10.43;5.68;;;14.90;99.90;;;-144.05;88.83;57006.00;5035316;28;20110;-84
2023/09/02 06:48:49;;;;;;;10.52;6.97;;;19.00;99.90;;;-144.05;87.97;57006.00;5037111;28;20034;-83
2023/09/02 06:51:16;;;;;;;8.85;6.38;;;19.10;99.90;;;-144.05;87.28;56997.50;5052062;28;20061;-86
2023/09/02 06:53:44;;;;;;;7.00;4.88;;;19.30;99.90;;;-144.05;86.82;57006.00;5051722;28;20025;-86
2023/09/02 06:56:12;;;;;;;7.30;5.15;;;19.30;99.90;;;-144.05;86.29;56984.78;5051570;28;20025;-82
2023/09/02 06:58:42;;;;;;;6.93;4.22;;;15.50;99.90;;;-144.05;86.12;56986.91;5039162;28;20034;-84
2023/09/02 07:01:22;;;;;;;7.68;4.85;;;15.40;99.90;;;-144.05;85.66;57016.63;5039778;28;20096;-84
2023/09/02 07:03:49;;;;;;;7.88;5.65;;;15.50;99.90;;;-144.05;85.03;57040.00;5037571;28;20017;-82
2023/09/02 07:06:16;;;;;;;8.63;5.82;;;;;;;-144.05;84.22;57003.88;5037547;28;20029;-83
2023/09/02 07:08:44;;;;;;;7.25;4.63;;;18.20;99.90;;;-144.05;84.02;57012.38;5038875;28;20036;-81
2023/09/02 07:11:11;;;;;;;5.75;4.60;;;;;;;-144.05;83.17;57014.50;5037894;28;20124;-81
2023/09/02 07:13:39;;;;;;;7.72;4.68;;;19.60;99.90;;;-144.05;82.82;57020.88;5046067;28;20039;-83
2023/09/02 07:16:06;;;;;;;5.90;4.45;;;19.90;99.90;;;-144.05;81.80;57006.00;5045165;28;20041;-83
2023/09/02 07:18:33;;;;;;;6.80;4.85;;;20.10;99.90;;;-144.05;81.12;57010.25;5058208;28;20136;-86
2023/09/02 07:21:05;;;;;;;8.40;4.97;;;20.00;99.90;;;-144.05;80.20;57006.00;5057598;28;20492;-82
2023/09/02 07:23:33;;;;;;;7.10;4.85;;;16.30;99.90;;;-144.05;79.82;57010.25;5040939;28;20346;-84
2023/09/02 07:26:01;;;;;;;7.65;4.88;;;16.00;99.90;;;-144.05;79.40;57020.88;5040122;28;20074;-85
2023/09/02 07:28:32;;;;;;;12.07;4.72;;;19.90;99.90;;;-144.05;79.29;57014.50;5055530;28;20033;-85
2023/09/02 07:31:01;;;;;;;8.10;4.80;;;;;;;-144.05;79.16;56984.78;5040302;28;20075;-84
2023/09/02 07:33:28;;;;;;;4.47;3.50;;;19.70;99.90;;;-144.05;79.13;57010.25;5040091;28;20026;-85
2023/09/02 07:35:54;;;;;;;8.68;4.18;;;20.10;99.90;;;-144.05;79.48;57027.25;5041246;28;20500;-81
2023/09/02 07:38:20;;;;;;;6.68;5.00;;;;;;;-144.05;78.93;57046.38;5040575;28;20030;-81
2023/09/02 07:40:46;;;;;;;6.97;3.85;;;;;;;-144.05;79.11;57014.50;5040447;28;20503;-81
2023/09/02 07:43:12;;;;;;;4.43;2.78;;;20.10;99.90;;;-144.05;79.38;57027.25;5039958;28;20029;-82
2023/09/02 07:45:38;;;;;;;5.32;2.85;;;;;;;-144.05;79.48;57025.13;5039719;28;20040;-82
2023/09/02 07:48:05;;;;;;;6.28;3.55;;;;;;;-144.05;79.23;57018.75;5055573;28;20128;-82
2023/09/02 07:50:31;;;;;;;6.40;3.70;;;20.40;99.90;;;-144.05;79.06;57018.75;5038424;28;20396;-85
2023/09/02 07:52:57;;;;;;;4.85;3.97;;;;;;;-144.05;78.53;56995.38;5039246;28;20025;-84
2023/09/02 07:55:24;;;;;;;7.65;4.47;;;;;;;-144.05;77.76;57023.00;5037829;28;20036;-82
2023/09/02 07:57:51;;;;;;;4.80;3.90;;;;;;;-144.05;77.83;57014.50;5037200;28;20506;-83
2023/09/02 08:00:17;;;;;;;7.55;4.22;;;20.50;99.90;;;-144.05;77.46;57044.25;5037308;28;20037;-82
2023/09/02 08:02:43;;;;;;;4.60;3.50;;;16.00;99.90;;;-144.05;77.28;57018.75;5036353;28;20040;-81
2023/09/02 08:05:09;;;;;;;3.80;3.38;;;;;;;-144.05;77.45;57025.13;5036234;28;20405;-83
2023/09/02 08:07:36;;;;;;;4.70;3.03;;;20.50;99.90;;;-144.05;77.58;57014.50;5038495;28;20034;-81
2023/09/02 08:10:03;;;;;;;3.38;2.25;;;;;;;-144.05;77.90;57035.75;5053124;28;20033;-83
2023/09/02 08:12:29;;;;;;;3.90;3.33;;;17.00;99.90;;;-144.05;77.01;57031.50;5037264;28;20041;-83
2023/09/02 08:14:55;;;;;;;4.03;2.95;;;;;;;-144.05;76.90;57014.50;5036531;28;20061;-87
2023/09/02 08:17:21;;;;;;;6.30;3.90;;;19.50;99.90;;;-144.05;76.41;57027.25;5051102;28;20177;-83
2023/09/02 08:19:47;;;;;;;5.15;4.28;;;;;;;-144.05;76.22;57044.25;5051241;28;20030;-87
2023/09/02 08:22:13;;;;;;;5.07;3.80;;;;;;;-144.05;76.15;57031.50;5035014;28;20485;-81
2023/09/02 08:24:39;;;;;;;5.22;3.20;;;21.30;99.90;;;-144.05;76.24;57052.75;5035449;28;20582;-82
2023/09/02 08:27:05;;;;;;;6.55;4.22;;;21.10;99.90;;;-144.05;75.28;57014.50;5034878;28;20033;-84
2023/09/02 08:29:32;;;;;;;5.43;3.45;;;21.30;99.90;;;-144.05;75.25;57031.50;5044336;28;20045;-84
2023/09/02 08:31:58;;;;;;;4.88;2.90;;;17.70;99.90;;;-144.05;75.00;57033.63;5036453;28;20037;-84
2023/09/02 08:34:24;;;;;;;3.58;2.90;;;21.50;99.90;;;-144.05;74.37;57031.50;5036616;28;20038;-86
2023/09/02 08:36:50;;;;;;;4.97;3.08;;;17.90;99.90;;;-144.05;73.89;57035.75;5051859;28;20041;-85
2023/09/02 08:39:16;;;;;;;3.08;2.50;;;21.80;99.90;;;-144.05;73.47;57054.88;5034190;28;20049;-84
2023/09/02 08:41:48;;;;;;;3.22;2.38;;;20.50;99.90;;;-144.05;73.27;57012.38;5035615;28;20374;-81
2023/09/02 08:44:17;;;;;;;3.35;2.70;;;20.50;99.90;;;-144.05;72.35;57035.75;5034224;28;20022;-83
2023/09/02 08:46:49;;;;;;;2.95;2.22;;;17.50;99.90;;;-144.05;72.11;57069.72;5033163;28;20396;-85
2023/09/02 08:49:20;;;;;;;3.70;2.47;;;17.70;99.90;;;-144.05;71.52;57035.75;5035359;28;20033;-85
2023/09/02 08:51:47;;;;;;;2.83;2.20;;;21.90;99.90;;;-144.05;72.14;57042.13;5035284;28;20522;-83
2023/09/02 08:54:18;;;;;;;2.75;2.13;;;21.60;99.90;;;-144.05;71.06;57040.00;5035278;28;20104;-84
2023/09/02 08:56:45;;;;;;;4.30;2.10;;;;;;;-144.05;70.35;57071.84;5035391;28;20029;-82
2023/09/02 08:59:13;;;;;;;2.03;1.48;;;21.80;99.90;;;-144.05;70.49;57048.50;5050627;28;20034;-84
2023/09/02 09:01:45;;;;;;;1.92;1.50;;;22.70;99.90;;;-144.05;70.34;57027.25;5033412;28;20026;-84
2023/09/02 09:04:17;;;;;;;1.85;1.33;;;21.20;99.90;;;-144.05;70.18;57052.75;5051334;28;20093;-84
2023/09/02 09:06:44;;;;;;;2.10;1.33;;;22.90;99.90;;;-144.05;67.93;57052.75;5034948;28;20033;-83
2023/09/02 09:09:11;;;;;;;1.50;1.40;;;21.30;99.90;;;-144.05;67.77;57073.97;5036114;28;20116;-84
2023/09/02 09:11:43;;;;;;;5.28;1.75;;;19.30;99.90;;;-144.05;67.64;57073.97;5035976;28;20025;-84
2023/09/02 09:14:22;;;;;;;1.90;1.40;;;23.50;99.90;;;-144.05;67.39;57086.72;5036155;28;20108;-87
2023/09/02 09:16:56;;;;;;;4.22;1.25;;;23.50;99.90;;;-144.05;66.19;57069.72;5035612;28;20025;-85
2023/09/02 09:19:24;;;;;;;2.42;1.25;;;20.30;99.90;;;-144.05;65.01;57054.88;5052852;28;20028;-84
2023/09/02 09:21:50;;;;;;;1.80;1.30;;;20.10;99.90;;;-144.05;65.06;57065.47;5036468;28;20064;-84
2023/09/02 09:24:16;;;;;;;2.90;1.20;;;20.20;99.90;;;-144.05;64.91;57088.84;5037166;28;20021;-82
2023/09/02 09:26:44;;;;;;;1.45;1.25;;;23.50;99.90;;;-144.05;64.67;57059.09;5037469;28;20036;-86
2023/09/02 09:29:17;;;;;;;2.83;1.33;;;23.60;99.90;;;-144.05;64.98;57076.09;5036573;28;20036;-84
2023/09/02 09:31:44;;;;;;;1.95;1.20;;;24.10;99.90;;;-144.05;64.41;57073.97;5036379;28;20038;-87
2023/09/02 09:34:11;;;;;;;3.25;1.10;;;19.80;99.90;;;-144.05;64.67;57073.97;5040482;28;20040;-81
2023/09/02 09:36:38;;;;;;;3.50;1.10;;;;;;;-144.05;63.35;57073.97;5040216;28;20036;-83
2023/09/02 09:39:07;;;;;;;4.07;0.90;;;22.60;99.90;;;-144.05;62.99;57078.22;5039112;28;20032;-81
2023/09/02 09:41:35;;;;;;;3.63;1.02;;;24.10;99.90;;;-144.05;62.50;57093.09;5050871;28;20025;-81
2023/09/02 09:44:10;;;;;;;1.60;1.35;;;22.80;99.90;;;-144.05;63.25;57082.47;5065437;28;20009;-82
2023/09/02 09:46:52;;;;;;;1.08;0.98;;;24.50;99.90;;;-144.05;62.22;57088.84;5043030;28;20067;-82
2023/09/02 09:49:29;;;;;;;2.75;1.52;;;23.70;99.90;;;-144.05;62.60;57065.47;5057015;28;20037;-80
2023/09/02 09:52:01;;;;;;;1.65;1.20;;;19.50;99.90;;;-144.05;60.98;57097.34;5055494;28;20508;-81
2023/09/02 09:54:42;;;;;;;5.03;1.40;;;20.80;99.90;;;-144.05;60.90;57105.84;5040728;28;20032;-83
2023/09/02 09:57:30;;;;;;;1.50;1.27;;;20.80;99.90;;;-144.05;60.57;57099.47;5038092;28;20108;-80
2023/09/02 09:59:57;;;;;;;1.27;1.17;;;25.10;99.90;;;-144.05;60.26;57097.34;5038809;28;20028;-80
2023/09/02 10:02:24;;;;;;;1.15;1.00;;;;;;;-144.05;59.83;57103.72;5052399;28;20041;-81
2023/09/02 10:04:55;;;;;;;1.23;1.02;;;21.20;99.90;;;-144.05;58.81;57099.47;5039271;28;20033;-83
2023/09/02 10:07:33;;;;;;;3.08;0.95;;;21.20;99.90;;;-144.05;58.69;57124.97;5053886;28;20022;-82
2023/09/02 10:10:06;;;;;;;2.08;1.00;;;21.00;99.90;;;-144.05;59.37;57099.47;5038661;28;20029;-81
2023/09/02 10:12:35;;;;;;;3.08;1.20;;;21.10;99.90;;;-144.05;58.46;57101.59;5039938;28;20048;-79
2023/09/02 10:15:03;;;;;;;2.45;1.20;;;;;;;-144.05;58.73;57148.31;5060126;28;20041;-85
2023/09/02 10:17:32;;;;;;;2.80;1.30;;;23.80;99.90;;;-144.05;58.46;57124.97;5042257;28;20055;-81
2023/09/02 10:19:58;;;;;;;2.03;1.40;;;25.50;99.90;;;-144.05;58.60;57107.97;5039913;28;20030;-81
2023/09/02 10:22:32;;;;;;;1.10;1.00;;;24.40;99.90;;;-144.05;59.00;57141.94;5039355;28;20036;-81
2023/09/02 10:25:24;;;;;;;1.40;1.20;;;20.80;99.90;;;-144.05;57.64;57152.56;5041976;28;20030;-84
2023/09/02 10:28:04;;;;;;;2.45;1.40;;;26.10;99.90;;;-144.05;55.47;57154.69;5041681;28;20029;-81
2023/09/02 10:30:45;;;;;;;1.23;1.00;;;25.70;99.90;;;-144.05;54.68;57141.94;5040565;28;20033;-81